No data was retrieved for https://query.yahooapis.com/v1/public/yql?q=select+%2A+from+weather.forecast+where+woeid%3D973505&format=xml&u=c


Lesvos Island / Mitilini / Pligoni / SV8DTD



Thunder radar more information blitzortung!


warning for Rain more information rain snow radar


Visit our other weather sites:

Template documentation
and downloads

And another site



Rain From: 20-02-2020 23:00 Until: 21-02-2020 03:00 warning for: Rain Level: Yellow info button
english:
Temporarily heavy rain

Ελληνικά:
Κατά διαστήματα ισχυρή βροχή 

Wind From: 20-02-2020 19:00 Until: 21-02-2020 00:59 warning for: Wind Level: Yellow info button
english:
Locally gale force winds

Ελληνικά:
Τοπικά Θυελλώδεις άνεμοι 

Nearby METAR Reports

   
EHVK - Volkel Rnlafb, Netherlands
Distance from station: SW 18 km
Updated: Fri-Feb-2020 00:55
Overcast  
Overcast  
   Wind: West 18.5 km/h<br />Gust to 18.5 km/h
Wind: West 18.5 km/h
Gust to 18.5 km/h
Temperature: 6°C
Wind Chill: 3°C
Dew Point: 1°C
Humidity: 71%
Barometer: 1016 hPa
Clouds: Overcast
Visibility: More than 10 km
Cloud details: Partly Cloudy 3200 ft,
Overcast 3700 ft
EHVK 202255Z AUTO 27010G20KT 240V310 9999 SCT032 OVC037 06/01 Q1016 BLU
EDLV - Niederrhein, Germany
Distance from station: SE 25 km
Updated: Fri-Feb-2020 00:50
Partly Cloudy  
Partly Cloudy  
   Wind: West 24.1 km/h
Wind: West 24.1 km/h
Temperature: 5°C
Wind Chill: 1°C
Dew Point: 2°C
Humidity: 81%
Barometer: 1016 hPa
Clouds: Partly Cloudy
Visibility: 8 km
Cloud details: Partly Cloudy 4000 ft
EDLV 202250Z 27013KT 8000 SCT040 05/02 Q1016
EHDL - Deelen Rnlafb, Netherlands
Distance from station: N 35 km
Updated: Fri-Feb-2020 00:55
Clear  
Clear  
   Wind: West 18.5 km/h
Wind: West 18.5 km/h
Temperature: 4°C
Wind Chill: 0°C
Dew Point: 2°C
Humidity: 87%
Barometer: 1015 hPa
Clouds: Clear
Visibility: More than 10 km
Cloud details: Clear
EHDL 202255Z AUTO 27010KT 220V330 9999 NCD 04/02 Q1015 BLU
EHEH - Eindhoven Rnlafb, Netherlands
Distance from station: SW 48 km
Updated: Fri-Feb-2020 00:55
Mostly Cloudy  
Mostly Cloudy  
   Wind: West 18.5 km/h
Wind: West 18.5 km/h
Temperature: 5°C
Wind Chill: 1°C
Dew Point: 1°C
Humidity: 76%
Barometer: 1017 hPa
Clouds: Mostly Cloudy
Visibility: More than 10 km
Cloud details: Partly Cloudy 3300 ft,
Mostly Cloudy 3900 ft
EHEH 202255Z AUTO 26010KT 230V300 9999 SCT033 BKN039 05/01 Q1017 BLU
EHGR - Gilze-Rijen Rnla, Netherlands
Distance from station: WSW 70 km
Updated: Fri-Feb-2020 00:55
Few Clouds  
Few Clouds  
   Wind: West 20.4 km/h
Wind: West 20.4 km/h
Temperature: 5°C
Wind Chill: 1°C
Dew Point: 1°C
Humidity: 76%
Barometer: 1017 hPa
Clouds: Few Clouds
Visibility: More than 10 km
Cloud details: Few Clouds 3800 ft
EHGR 202255Z AUTO 27011KT 240V300 9999 FEW038 05/01 Q1017 BLU
EBBL - Kleine-Brogel(Ba, Belgium
Distance from station: SSW 71 km
Updated: Fri-Feb-2020 00:55
Clear  
Clear  
   Wind: WSW 18.5 km/h
Wind: WSW 18.5 km/h
Temperature: 3°C
Wind Chill: -1°C
Dew Point: 1°C
Humidity: 87%
Barometer: 1018 hPa
Clouds: Clear
Visibility: More than 10 km
Cloud details: Clear
EBBL 202255Z AUTO 25010KT 9999 NCD 03/01 Q1018 BLU

Script developed by  Saratoga-weather.org Adapted for the template by  Weerstation Leuven

You find our weather info also at:

European Weather Network

Citizen Weather Observer Program (CWOP)

Equipment we use:

Weather-station
Davis VP2

Weather-program
Meteohub

Davis VP2

Meteohub